Time;durP1;ratioP1;P1;durP2;ratioP2;P2;SDS_P1;SDS_P2;PMS_P1;PMS_P2;Temp;Humidity;BMP_temperature;BMP_pressure;BME280_temperature;BME280_humidity;BME280_pressure;Samples;Min_cycle;Max_cycle;Signal;HPM_P1;HPM_P2
2022/11/03 00:01:37;;;;;;;30.47;17.43;;;10.00;66.20;;;;;;5943202;23;114088;-81
2022/11/03 00:04:05;;;;;;;30.50;18.95;;;10.00;66.10;;;;;;5968739;23;114199;-82
2022/11/03 00:06:32;;;;;;;30.38;17.10;;;10.00;66.10;;;;;;5942725;23;114866;-82
2022/11/03 00:09:00;;;;;;;27.30;17.00;;;10.00;66.10;;;;;;5967388;23;114606;-82
2022/11/03 00:11:27;;;;;;;29.17;14.93;;;10.00;66.00;;;;;;5968673;23;114120;-82
2022/11/03 00:13:55;;;;;;;28.98;16.75;;;10.10;66.60;;;;;;5943481;23;114481;-81
2022/11/03 00:16:22;;;;;;;31.00;15.98;;;10.00;66.20;;;;;;5942352;23;114821;-81
2022/11/03 00:18:50;;;;;;;27.52;16.60;;;10.00;66.20;;;;;;5967699;23;114709;-81
2022/11/03 00:21:17;;;;;;;33.20;17.10;;;10.00;66.40;;;;;;5968130;23;114117;-81
2022/11/03 00:23:44;;;;;;;26.95;17.65;;;10.00;66.20;;;;;;5967248;23;114492;-81
2022/11/03 00:26:12;;;;;;;29.33;17.50;;;10.00;66.40;;;;;;5969498;23;115517;-80
2022/11/03 00:28:40;;;;;;;28.30;16.83;;;10.00;66.40;;;;;;5963874;23;114553;-81
2022/11/03 00:31:09;;;;;;;26.08;15.95;;;10.00;66.70;;;;;;5972441;23;114254;-81
2022/11/03 00:33:36;;;;;;;27.63;16.08;;;10.00;66.40;;;;;;5944101;23;114500;-81
2022/11/03 00:36:05;;;;;;;26.73;16.15;;;10.10;66.50;;;;;;5967949;23;115049;-81
2022/11/03 00:38:32;;;;;;;29.88;18.33;;;10.10;66.60;;;;;;5942882;23;114610;-81
2022/11/03 00:41:00;;;;;;;26.88;16.23;;;10.10;66.20;;;;;;5944216;23;114345;-81
2022/11/03 00:43:28;;;;;;;30.95;16.92;;;10.10;66.50;;;;;;5944503;23;114298;-81
2022/11/03 00:45:55;;;;;;;23.90;15.43;;;10.10;66.30;;;;;;5943176;23;114227;-82
2022/11/03 00:48:28;;;;;;;31.15;17.83;;;10.00;66.50;;;;;;5967610;23;114669;-82
2022/11/03 00:51:34;;;;;;;29.58;17.42;;;10.00;66.40;;;;;;5921181;23;114169;-81
2022/11/03 00:54:03;;;;;;;26.17;16.23;;;10.00;66.50;;;;;;5948614;23;114384;-81
2022/11/03 00:56:34;;;;;;;26.27;16.25;;;9.90;66.80;;;;;;5919660;23;115202;-83
2022/11/03 00:59:02;;;;;;;30.40;16.85;;;9.90;66.50;;;;;;5919034;23;114704;-83
2022/11/03 01:01:39;;;;;;;25.50;15.73;;;10.00;66.50;;;;;;5968242;23;114437;-82
2022/11/03 01:06:58;;;;;;;24.95;15.55;;;9.90;66.40;;;;;;5921819;23;117641;-82
2022/11/03 01:09:35;;;;;;;31.60;16.85;;;9.90;66.30;;;;;;5967726;23;114651;-83
2022/11/03 01:12:16;;;;;;;28.67;16.50;;;10.00;66.30;;;;;;5920040;23;114258;-82
2022/11/03 01:14:45;;;;;;;25.95;16.15;;;9.90;66.50;;;;;;5968241;23;114296;-82
2022/11/03 01:17:19;;;;;;;26.08;15.23;;;9.90;66.40;;;;;;5941489;23;115012;-82
2022/11/03 01:19:47;;;;;;;27.60;16.20;;;9.90;67.10;;;;;;5942109;23;114941;-82
2022/11/03 01:22:14;;;;;;;24.02;15.27;;;9.80;66.70;;;;;;5919272;23;114251;-81
2022/11/03 01:24:41;;;;;;;25.88;16.15;;;9.90;66.90;;;;;;5968347;23;114257;-82
2022/11/03 01:27:09;;;;;;;26.90;15.07;;;9.80;66.70;;;;;;5942599;23;115308;-82
2022/11/03 01:29:36;;;;;;;21.75;15.35;;;9.90;66.90;;;;;;5942177;23;115082;-82
2022/11/03 01:32:03;;;;;;;24.05;15.43;;;9.80;66.80;;;;;;5968314;23;115781;-83
2022/11/03 01:34:30;;;;;;;23.30;15.07;;;9.80;66.70;;;;;;5966448;23;114489;-82
2022/11/03 01:36:57;;;;;;;29.33;16.15;;;9.90;66.90;;;;;;5942091;23;114788;-82
2022/11/03 01:39:24;;;;;;;26.60;15.68;;;9.90;66.60;;;;;;5941477;23;115117;-81
2022/11/03 01:41:51;;;;;;;25.98;14.80;;;9.80;66.80;;;;;;5966097;23;114343;-82
2022/11/03 01:44:25;;;;;;;26.05;15.18;;;9.80;66.80;;;;;;5943103;23;114183;-82
2022/11/03 01:47:13;;;;;;;24.98;14.50;;;9.80;66.80;;;;;;5942981;23;114887;-82
2022/11/03 01:49:48;;;;;;;26.20;15.23;;;9.90;67.20;;;;;;5967571;23;114327;-82
2022/11/03 01:52:27;;;;;;;29.13;16.50;;;9.80;66.90;;;;;;5943193;23;114214;-81
2022/11/03 01:54:59;;;;;;;25.65;14.65;;;9.80;66.80;;;;;;5944644;23;114645;-82
2022/11/03 01:57:42;;;;;;;22.88;13.57;;;9.80;66.80;;;;;;5942167;23;114957;-82
2022/11/03 02:00:09;;;;;;;24.58;14.10;;;9.80;67.00;;;;;;5945280;23;114626;-81
2022/11/03 02:02:40;;;;;;;24.88;14.90;;;9.70;66.70;;;;;;5968148;23;114303;-81
2022/11/03 02:05:07;;;;;;;22.45;14.07;;;9.70;66.60;;;;;;5967850;23;114388;-81
2022/11/03 02:07:37;;;;;;;23.20;14.27;;;9.70;66.40;;;;;;5941370;23;114838;-81
2022/11/03 02:10:05;;;;;;;23.48;14.00;;;9.60;66.50;;;;;;5942108;23;114818;-81
2022/11/03 02:12:31;;;;;;;23.52;14.57;;;9.60;66.70;;;;;;5968176;23;115285;-82
2022/11/03 02:15:10;;;;;;;24.52;14.10;;;9.50;66.90;;;;;;5944986;23;114388;-81
2022/11/03 02:17:37;;;;;;;23.20;13.95;;;9.50;66.90;;;;;;5954616;23;115148;-81
2022/11/03 02:20:06;;;;;;;20.83;12.88;;;9.40;67.50;;;;;;5941417;23;114587;-81
2022/11/03 02:22:40;;;;;;;23.15;14.23;;;9.50;67.30;;;;;;5942756;23;114493;-82
2022/11/03 02:25:16;;;;;;;24.50;13.73;;;9.50;67.50;;;;;;5943215;23;114172;-81
2022/11/03 02:27:43;;;;;;;23.38;14.25;;;9.40;67.40;;;;;;5966252;23;115052;-81
2022/11/03 02:30:10;;;;;;;23.20;13.60;;;9.30;67.30;;;;;;5941620;23;114605;-81
2022/11/03 02:32:48;;;;;;;21.92;12.70;;;9.40;67.40;;;;;;5966649;23;114401;-81
2022/11/03 02:35:28;;;;;;;22.83;13.45;;;9.40;68.00;;;;;;5944816;23;114191;-81
2022/11/03 02:37:56;;;;;;;22.83;13.40;;;9.40;67.70;;;;;;5942372;23;116050;-81
2022/11/03 02:40:33;;;;;;;26.35;13.23;;;9.40;67.40;;;;;;5942244;23;114995;-81
2022/11/03 02:43:01;;;;;;;20.98;12.63;;;9.30;67.40;;;;;;5943455;23;114108;-81
2022/11/03 02:45:28;;;;;;;20.88;12.23;;;9.40;67.30;;;;;;5919038;23;114217;-81
2022/11/03 02:47:56;;;;;;;20.95;12.57;;;9.40;67.60;;;;;;5942057;23;114996;-81
2022/11/03 02:50:28;;;;;;;20.40;12.32;;;9.40;67.40;;;;;;5943619;23;114541;-81
2022/11/03 02:52:55;;;;;;;21.52;11.82;;;9.30;67.40;;;;;;5946177;23;115010;-81
2022/11/03 02:55:56;;;;;;;19.63;11.68;;;9.30;67.40;;;;;;5945525;23;114394;-82
2022/11/03 02:58:37;;;;;;;23.15;12.65;;;9.30;67.30;;;;;;5924311;23;117874;-82
2022/11/03 03:01:45;;;;;;;19.02;12.30;;;9.20;67.90;;;;;;5944917;23;114805;-81
2022/11/03 03:04:21;;;;;;;27.00;11.88;;;9.20;67.60;;;;;;5948016;23;115355;-81
2022/11/03 03:06:52;;;;;;;23.80;12.27;;;9.20;68.00;;;;;;5946800;23;114334;-81
2022/11/03 03:09:22;;;;;;;19.02;11.68;;;9.20;68.10;;;;;;5945127;23;114810;-81
2022/11/03 03:11:49;;;;;;;22.58;12.20;;;9.10;68.30;;;;;;5944979;23;115172;-81
2022/11/03 03:14:23;;;;;;;18.35;12.00;;;9.10;68.00;;;;;;5945687;23;114522;-82
2022/11/03 03:16:53;;;;;;;18.38;11.90;;;9.20;67.80;;;;;;5922991;23;114108;-82
2022/11/03 03:19:25;;;;;;;20.40;12.23;;;9.20;67.60;;;;;;5969505;23;114900;-82
2022/11/03 03:21:53;;;;;;;22.38;12.73;;;9.10;67.50;;;;;;5944263;23;115120;-82
2022/11/03 03:24:36;;;;;;;19.70;12.27;;;9.10;67.40;;;;;;5945259;23;114229;-82
2022/11/03 03:27:03;;;;;;;22.73;11.50;;;9.20;67.60;;;;;;5946646;23;114388;-81
2022/11/03 03:29:38;;;;;;;20.35;12.40;;;9.10;67.70;;;;;;5969315;23;114852;-82
2022/11/03 03:32:06;;;;;;;16.52;11.13;;;9.10;67.40;;;;;;5945500;23;114662;-81
2022/11/03 03:34:33;;;;;;;19.90;12.07;;;9.00;67.60;;;;;;5945480;23;114266;-81
2022/11/03 03:37:02;;;;;;;21.73;12.60;;;8.90;67.50;;;;;;5922789;23;114302;-81
2022/11/03 03:39:31;;;;;;;20.98;12.60;;;9.00;67.40;;;;;;5944400;23;115179;-81
2022/11/03 03:41:58;;;;;;;23.60;14.15;;;8.90;67.50;;;;;;5909460;23;116206;-81
2022/11/03 03:44:25;;;;;;;21.95;11.90;;;9.00;67.60;;;;;;5887382;23;114333;-81
2022/11/03 03:46:59;;;;;;;19.25;12.25;;;8.90;67.50;;;;;;5911351;23;114354;-81
2022/11/03 03:49:26;;;;;;;20.13;12.93;;;8.90;67.60;;;;;;5909514;23;115001;-81
2022/11/03 03:51:53;;;;;;;21.38;12.10;;;8.80;67.70;;;;;;5910041;23;114704;-81
2022/11/03 03:54:20;;;;;;;22.17;12.48;;;8.80;68.00;;;;;;5911024;23;115094;-81
2022/11/03 03:57:00;;;;;;;17.52;11.52;;;8.80;68.10;;;;;;5910628;23;114499;-81
2022/11/03 03:59:27;;;;;;;23.05;13.02;;;8.90;68.10;;;;;;5887184;23;114963;-81
2022/11/03 04:01:54;;;;;;;21.05;12.00;;;8.80;68.00;;;;;;5909078;23;114699;-81
2022/11/03 04:04:21;;;;;;;18.80;11.40;;;8.80;68.20;;;;;;5915680;23;114260;-81
2022/11/03 04:06:48;;;;;;;18.25;11.50;;;8.80;68.20;;;;;;5917769;23;114194;-81
2022/11/03 04:09:15;;;;;;;19.63;11.57;;;8.80;67.80;;;;;;5908855;23;115374;-82
2022/11/03 04:22:54;;;;;;;23.00;13.65;;;8.60;67.90;;;;;;5923157;23;114630;-81
2022/11/03 04:25:21;;;;;;;22.85;13.40;;;8.60;67.70;;;;;;5968309;23;114418;-82
2022/11/03 04:27:48;;;;;;;18.70;12.10;;;8.60;67.60;;;;;;5943503;23;114367;-83
2022/11/03 04:30:16;;;;;;;20.73;12.48;;;8.60;67.80;;;;;;5967563;23;114863;-82
2022/11/03 04:32:44;;;;;;;20.67;13.55;;;8.60;67.70;;;;;;5942728;23;114790;-82
2022/11/03 04:35:25;;;;;;;20.55;13.70;;;8.50;67.70;;;;;;5943492;23;114305;-82
2022/11/03 04:38:01;;;;;;;19.92;12.13;;;8.40;67.90;;;;;;5921456;23;114329;-82
2022/11/03 04:40:28;;;;;;;18.70;12.75;;;8.40;68.30;;;;;;5942313;23;114953;-81
2022/11/03 04:42:55;;;;;;;19.13;12.07;;;8.40;68.20;;;;;;5942338;23;114598;-81
2022/11/03 04:45:29;;;;;;;21.77;13.52;;;8.30;68.40;;;;;;5943032;23;114180;-81
2022/11/03 04:47:58;;;;;;;21.05;13.73;;;8.40;68.30;;;;;;5945224;23;114315;-80
2022/11/03 04:50:25;;;;;;;20.70;12.65;;;8.30;68.40;;;;;;5942247;23;114842;-81
2022/11/03 04:52:56;;;;;;;18.55;12.48;;;8.30;68.50;;;;;;5942058;23;114637;-81
2022/11/03 04:55:24;;;;;;;20.77;12.38;;;8.40;68.90;;;;;;5943446;23;114286;-81
2022/11/03 04:57:59;;;;;;;19.55;11.32;;;8.40;69.00;;;;;;5944486;23;114282;-81
2022/11/03 05:00:26;;;;;;;17.73;12.73;;;8.40;69.50;;;;;;5919035;23;115184;-81
2022/11/03 05:02:53;;;;;;;15.52;11.40;;;8.40;68.90;;;;;;5918256;23;116673;-81
2022/11/03 05:05:23;;;;;;;20.25;12.55;;;8.40;69.40;;;;;;5943244;23;114348;-81
2022/11/03 05:07:51;;;;;;;21.88;12.57;;;8.40;68.60;;;;;;5943489;23;114112;-80
2022/11/03 05:10:22;;;;;;;22.27;12.60;;;8.40;68.30;;;;;;5965521;23;114877;-80
2022/11/03 05:12:49;;;;;;;18.77;12.13;;;8.40;68.10;;;;;;5942374;23;114562;-81
2022/11/03 05:15:36;;;;;;;20.90;13.25;;;8.40;67.80;;;;;;5942861;23;116221;-80
2022/11/03 05:18:43;;;;;;;17.60;12.38;;;8.40;67.60;;;;;;5943501;23;114205;-81
2022/11/03 05:21:15;;;;;;;23.05;11.95;;;8.40;67.50;;;;;;5947314;23;115142;-80
2022/11/03 05:23:47;;;;;;;24.35;14.02;;;8.20;67.60;;;;;;5965394;23;114868;-81
2022/11/03 05:26:21;;;;;;;21.55;13.10;;;8.20;67.50;;;;;;5967983;23;114298;-81
2022/11/03 05:28:58;;;;;;;23.90;13.80;;;8.20;67.40;;;;;;5920836;23;114334;-81
2022/11/03 05:31:27;;;;;;;23.20;13.25;;;8.10;67.50;;;;;;5942565;23;114932;-80
2022/11/03 05:34:02;;;;;;;24.55;13.82;;;8.10;67.60;;;;;;5942224;23;115008;-80
2022/11/03 05:36:29;;;;;;;;;;;8.10;67.70;;;;;;5968233;23;114261;-81
2022/11/03 05:39:04;;;;;;;22.90;12.93;;;8.00;67.60;;;;;;5942981;23;114219;-80
2022/11/03 05:41:31;;;;;;;22.00;12.88;;;7.90;68.20;;;;;;5919046;23;115004;-81
2022/11/03 05:44:00;;;;;;;22.67;12.80;;;8.00;67.90;;;;;;5966365;23;114796;-81
2022/11/03 05:46:31;;;;;;;22.52;12.60;;;8.00;67.80;;;;;;5943195;23;114312;-80
2022/11/03 05:48:59;;;;;;;22.45;12.48;;;8.00;68.10;;;;;;5943153;23;114470;-81
2022/11/03 05:51:33;;;;;;;20.02;12.55;;;7.90;67.70;;;;;;5941738;23;114987;-80
2022/11/03 05:54:01;;;;;;;20.35;11.93;;;8.00;68.00;;;;;;5895379;23;117046;-80
2022/11/03 05:56:28;;;;;;;17.15;11.65;;;7.90;67.90;;;;;;5936744;23;114187;-81
2022/11/03 05:58:56;;;;;;;21.73;12.07;;;7.90;68.40;;;;;;5938131;23;113973;-82
2022/11/03 06:01:24;;;;;;;19.45;12.43;;;7.90;68.30;;;;;;5938067;23;115495;-80
2022/11/03 06:03:51;;;;;;;22.02;12.68;;;8.00;67.90;;;;;;5960199;23;114537;-82
2022/11/03 06:06:28;;;;;;;20.85;12.60;;;8.00;67.80;;;;;;5939184;23;114326;-82
2022/11/03 06:09:02;;;;;;;23.90;14.40;;;8.00;67.70;;;;;;5959298;23;114241;-81
2022/11/03 06:11:32;;;;;;;26.65;15.85;;;8.00;67.80;;;;;;5914065;23;114799;-81
2022/11/03 06:13:59;;;;;;;28.27;13.98;;;8.10;67.30;;;;;;5959403;23;116520;-81
2022/11/03 06:16:36;;;;;;;24.35;14.98;;;8.20;67.30;;;;;;5882131;23;115153;-81
2022/11/03 06:19:18;;;;;;;20.05;12.80;;;8.20;67.10;;;;;;5938846;23;114353;-81
2022/11/03 06:21:48;;;;;;;24.88;13.45;;;8.30;67.00;;;;;;5911464;23;117999;-82
2022/11/03 06:24:15;;;;;;;25.70;14.65;;;8.30;66.80;;;;;;5958862;23;116076;-83
2022/11/03 06:26:42;;;;;;;25.10;17.95;;;8.40;66.80;;;;;;5960160;23;114518;-81
2022/11/03 06:29:14;;;;;;;28.40;18.17;;;8.50;66.90;;;;;;5936694;23;114227;-82
2022/11/03 06:31:41;;;;;;;26.48;17.88;;;8.60;66.50;;;;;;5958481;23;114807;-82
2022/11/03 06:34:32;;;;;;;26.05;18.70;;;8.60;66.40;;;;;;5936584;23;115883;-81
2022/11/03 06:37:04;;;;;;;23.35;15.32;;;8.70;66.00;;;;;;5937323;23;114483;-82
2022/11/03 06:39:39;;;;;;;23.65;14.90;;;8.70;66.00;;;;;;5960435;23;114275;-82
2022/11/03 06:42:13;;;;;;;21.63;14.35;;;8.80;66.10;;;;;;5934933;23;116234;-82
2022/11/03 06:44:44;;;;;;;22.42;15.15;;;8.90;65.70;;;;;;5958792;23;115179;-82
2022/11/03 06:47:25;;;;;;;21.02;15.45;;;9.00;65.60;;;;;;5935960;23;114401;-82
2022/11/03 06:49:57;;;;;;;23.50;14.75;;;9.10;65.90;;;;;;5960690;23;114273;-82
2022/11/03 06:52:32;;;;;;;21.55;13.65;;;9.10;65.90;;;;;;5959178;23;114913;-82
2022/11/03 06:55:11;;;;;;;23.10;14.82;;;9.30;65.80;;;;;;5938484;23;114942;-82
2022/11/03 06:57:45;;;;;;;25.48;14.10;;;9.40;65.50;;;;;;5967039;23;114217;-82
2022/11/03 07:00:21;;;;;;;21.70;14.68;;;9.50;65.50;;;;;;5967433;23;114235;-82
2022/11/03 07:03:15;;;;;;;;;;;9.70;65.00;;;;;;5946857;23;115094;-82
2022/11/03 07:05:43;;;;;;;26.02;14.93;;;9.70;65.50;;;;;;5918317;23;114627;-82
2022/11/03 07:08:21;;;;;;;22.33;14.55;;;9.80;65.10;;;;;;5920493;23;114967;-82
2022/11/03 07:10:50;;;;;;;23.35;13.25;;;9.90;64.10;;;;;;5967139;23;114071;-82
2022/11/03 07:13:23;;;;;;;22.52;13.10;;;10.00;64.40;;;;;;5940792;23;114993;-81
2022/11/03 07:15:50;;;;;;;22.05;14.15;;;10.10;64.10;;;;;;5964674;23;114634;-81
2022/11/03 07:18:41;;;;;;;21.95;13.73;;;10.20;64.40;;;;;;5941993;23;114207;-81
2022/11/03 07:21:42;;;;;;;19.85;13.75;;;10.40;63.80;;;;;;5941313;23;114636;-82
2022/11/03 07:24:17;;;;;;;20.30;12.90;;;10.60;63.50;;;;;;5945347;23;114860;-82
2022/11/03 07:26:45;;;;;;;19.67;11.93;;;10.70;63.50;;;;;;5941441;23;114599;-82
2022/11/03 07:29:17;;;;;;;18.48;11.50;;;10.80;62.90;;;;;;5967059;23;114240;-81
2022/11/03 07:31:44;;;;;;;17.48;10.68;;;10.90;62.70;;;;;;5942021;23;114612;-82
2022/11/03 07:34:19;;;;;;;18.25;11.65;;;11.00;62.60;;;;;;5939907;23;116578;-82
2022/11/03 07:36:46;;;;;;;15.13;10.10;;;11.10;62.30;;;;;;5941041;23;115825;-82
2022/11/03 07:39:21;;;;;;;19.75;11.10;;;11.30;63.00;;;;;;5943204;23;115706;-82
2022/11/03 07:41:48;;;;;;;12.93;8.48;;;11.40;62.20;;;;;;5967242;23;114308;-81
2022/11/03 07:44:19;;;;;;;16.65;10.32;;;11.60;61.70;;;;;;5966288;23;115160;-82
2022/11/03 07:46:47;;;;;;;13.43;7.95;;;11.70;62.40;;;;;;5942378;23;114642;-81
2022/11/03 07:49:27;;;;;;;13.73;8.40;;;11.70;61.20;;;;;;5943393;23;114452;-82
2022/11/03 07:51:55;;;;;;;15.88;8.45;;;11.90;61.30;;;;;;5943667;23;114306;-81
2022/11/03 07:54:32;;;;;;;16.45;7.85;;;12.00;61.40;;;;;;5942927;23;114799;-82
2022/11/03 07:57:03;;;;;;;14.88;8.05;;;12.10;60.60;;;;;;5942059;23;114679;-81
2022/11/03 07:59:57;;;;;;;12.45;7.45;;;12.20;60.50;;;;;;5968278;23;114340;-81
2022/11/03 08:02:32;;;;;;;12.10;6.67;;;12.30;60.50;;;;;;5940335;23;114687;-81
2022/11/03 08:04:59;;;;;;;;;;;12.40;59.90;;;;;;5941342;23;117144;-82
2022/11/03 08:07:29;;;;;;;12.02;6.30;;;12.30;60.70;;;;;;5967307;23;114592;-81
2022/11/03 08:09:56;;;;;;;11.05;5.55;;;12.40;59.30;;;;;;5944115;23;114469;-80
2022/11/03 08:12:24;;;;;;;11.65;6.53;;;12.40;58.50;;;;;;5943280;23;114190;-80
2022/11/03 08:14:51;;;;;;;13.20;4.72;;;12.50;58.50;;;;;;5965519;23;115109;-81
2022/11/03 08:17:18;;;;;;;11.00;4.35;;;12.60;57.50;;;;;;5965495;23;114661;-82
2022/11/03 08:19:45;;;;;;;7.85;3.83;;;12.50;56.90;;;;;;5942940;23;115025;-83
2022/11/03 08:22:12;;;;;;;7.40;4.05;;;12.40;56.40;;;;;;5968810;23;114265;-82
2022/11/03 08:24:39;;;;;;;13.75;5.40;;;12.50;57.20;;;;;;5965315;23;114767;-81
2022/11/03 08:27:08;;;;;;;8.80;4.70;;;12.60;57.20;;;;;;5966821;23;114659;-82
2022/11/03 08:29:36;;;;;;;9.93;4.70;;;12.70;57.00;;;;;;5919007;23;114450;-81
2022/11/03 08:32:03;;;;;;;10.73;5.05;;;12.90;56.70;;;;;;5919601;23;114166;-81
2022/11/03 08:34:30;;;;;;;9.18;4.72;;;13.00;56.20;;;;;;5966987;23;114992;-81
2022/11/03 08:36:57;;;;;;;10.55;3.92;;;13.00;56.00;;;;;;5941626;23;115344;-81
2022/11/03 08:39:24;;;;;;;8.05;3.10;;;13.10;54.80;;;;;;5943290;23;114402;-81
2022/11/03 08:41:51;;;;;;;7.68;3.42;;;13.20;54.30;;;;;;5967772;23;114437;-81
2022/11/03 08:44:18;;;;;;;7.43;3.20;;;13.10;53.40;;;;;;5966883;23;115194;-81
2022/11/03 08:46:45;;;;;;;10.68;3.33;;;13.10;53.80;;;;;;5919520;23;114908;-81
2022/11/03 08:49:12;;;;;;;5.68;3.42;;;13.00;52.50;;;;;;5967583;23;114914;-81
2022/11/03 08:51:39;;;;;;;8.30;3.30;;;12.90;53.20;;;;;;5968050;23;114596;-81
2022/11/03 08:54:10;;;;;;;8.82;3.92;;;12.80;52.80;;;;;;5965600;23;115583;-81
2022/11/03 08:56:37;;;;;;;8.10;3.67;;;12.80;53.80;;;;;;5966321;23;115141;-81
2022/11/03 08:59:04;;;;;;;8.50;3.20;;;12.90;53.70;;;;;;5968407;23;114123;-81
2022/11/03 09:01:31;;;;;;;7.63;3.58;;;13.00;53.60;;;;;;5967764;23;114446;-83
2022/11/03 09:03:59;;;;;;;11.27;3.78;;;13.10;53.50;;;;;;5966779;23;115529;-81
2022/11/03 09:06:26;;;;;;;6.25;3.47;;;13.20;53.50;;;;;;5966662;23;114672;-81
2022/11/03 09:08:53;;;;;;;9.77;3.67;;;13.20;52.70;;;;;;5967983;23;114394;-81
2022/11/03 09:11:41;;;;;;;9.07;3.58;;;13.30;52.50;;;;;;5968238;23;114460;-81
2022/11/03 09:14:08;;;;;;;9.15;3.67;;;13.20;51.30;;;;;;5941910;23;114925;-81
2022/11/03 09:16:35;;;;;;;9.23;3.72;;;13.10;52.10;;;;;;5966774;23;115095;-82
2022/11/03 09:19:06;;;;;;;6.78;3.90;;;13.00;52.40;;;;;;5967376;23;114418;-81
2022/11/03 09:21:33;;;;;;;6.70;3.67;;;13.10;52.60;;;;;;5967247;23;114449;-82
2022/11/03 09:24:01;;;;;;;8.38;3.83;;;13.20;52.50;;;;;;5966919;23;115186;-83
2022/11/03 09:26:28;;;;;;;8.23;3.20;;;13.40;52.00;;;;;;5964676;23;114924;-81
2022/11/03 09:28:55;;;;;;;7.43;3.33;;;13.50;51.40;;;;;;5918753;23;114471;-81
2022/11/03 09:31:24;;;;;;;6.72;3.35;;;13.50;51.30;;;;;;5967835;23;114107;-82
2022/11/03 09:33:51;;;;;;;8.68;3.40;;;13.60;51.40;;;;;;5942279;23;114956;-81
2022/11/03 09:36:18;;;;;;;7.03;3.80;;;13.60;51.30;;;;;;5967368;23;114651;-82
2022/11/03 09:38:45;;;;;;;6.22;2.90;;;13.70;51.00;;;;;;5967924;23;114271;-82
2022/11/03 09:41:16;;;;;;;8.30;3.63;;;13.70;49.90;;;;;;5942691;23;114124;-81
2022/11/03 09:43:55;;;;;;;6.97;2.72;;;13.70;49.90;;;;;;5921148;23;114803;-82
2022/11/03 09:46:27;;;;;;;7.25;2.95;;;13.70;49.00;;;;;;5966667;23;114703;-83
2022/11/03 09:48:55;;;;;;;5.05;2.50;;;13.70;48.60;;;;;;5920839;23;114065;-82
2022/11/03 09:51:28;;;;;;;6.90;2.80;;;13.60;48.70;;;;;;5968140;23;114386;-82
2022/11/03 09:53:56;;;;;;;5.55;3.00;;;13.50;48.00;;;;;;5942913;23;114367;-82
2022/11/03 09:56:24;;;;;;;6.68;2.83;;;13.60;48.90;;;;;;5966709;23;114520;-81
2022/11/03 09:58:52;;;;;;;5.65;2.88;;;13.60;48.30;;;;;;5943615;23;114475;-83
2022/11/03 10:01:21;;;;;;;6.55;3.05;;;13.60;48.30;;;;;;5944181;23;114459;-82
2022/11/03 10:03:48;;;;;;;6.43;2.88;;;13.60;48.40;;;;;;5942716;23;114734;-82
2022/11/03 10:06:17;;;;;;;7.57;2.70;;;13.70;48.10;;;;;;5929532;23;114770;-82
2022/11/03 10:08:44;;;;;;;6.25;3.10;;;13.70;47.80;;;;;;5942559;23;114600;-81
2022/11/03 10:11:12;;;;;;;6.55;3.42;;;13.70;47.70;;;;;;5968078;23;114291;-83
2022/11/03 10:13:40;;;;;;;7.05;3.83;;;13.60;48.10;;;;;;5942226;23;114916;-81
2022/11/03 10:16:08;;;;;;;6.75;3.10;;;13.70;48.80;;;;;;5942641;23;114721;-82
2022/11/03 10:18:36;;;;;;;5.00;2.83;;;13.80;48.60;;;;;;5943494;23;114432;-81
2022/11/03 10:21:37;;;;;;;6.45;3.10;;;13.90;48.10;;;;;;5967344;23;114256;-82
2022/11/03 10:24:04;;;;;;;7.40;3.67;;;14.10;47.90;;;;;;5943537;23;115210;-82
2022/11/03 10:27:02;;;;;;;5.18;2.78;;;14.20;48.10;;;;;;5967528;23;114720;-82
2022/11/03 10:29:29;;;;;;;6.07;2.70;;;14.30;46.30;;;;;;5944434;23;114485;-81
2022/11/03 10:32:03;;;;;;;5.70;2.85;;;14.20;46.00;;;;;;5968252;23;114275;-81
2022/11/03 10:34:35;;;;;;;3.72;1.90;;;14.20;45.00;;;;;;5940873;23;115161;-82
2022/11/03 10:37:23;;;;;;;6.63;2.55;;;14.20;44.50;;;;;;5941283;23;115320;-82
2022/11/03 10:39:51;;;;;;;4.88;2.72;;;14.20;45.40;;;;;;5941543;23;114295;-82
2022/11/03 10:42:23;;;;;;;6.53;2.78;;;14.30;45.60;;;;;;5942493;23;114414;-82
2022/11/03 10:44:52;;;;;;;4.50;2.67;;;14.40;45.10;;;;;;5966276;23;114881;-82
2022/11/03 10:47:33;;;;;;;7.57;4.05;;;14.40;45.00;;;;;;5940636;23;118369;-83
2022/11/03 10:50:12;;;;;;;6.20;2.95;;;14.60;44.50;;;;;;5967046;23;114249;-83
2022/11/03 10:52:39;;;;;;;8.40;2.80;;;14.60;44.70;;;;;;5945576;23;114363;-83
2022/11/03 10:55:06;;;;;;;5.60;3.33;;;14.70;43.60;;;;;;5965720;23;116549;-82
2022/11/03 10:57:34;;;;;;;5.03;2.33;;;14.70;44.00;;;;;;5964312;23;114680;-81
2022/11/03 11:00:02;;;;;;;5.95;2.30;;;14.70;42.80;;;;;;5967261;23;114494;-81
2022/11/03 11:02:30;;;;;;;7.78;2.97;;;14.70;41.80;;;;;;5967990;23;114385;-82
2022/11/03 11:05:00;;;;;;;6.25;3.17;;;14.70;42.70;;;;;;5942151;23;114849;-82
2022/11/03 11:07:38;;;;;;;5.38;2.92;;;14.70;43.10;;;;;;5941529;23;116523;-81
2022/11/03 11:10:23;;;;;;;4.90;2.50;;;14.80;43.60;;;;;;5942751;23;114441;-81
2022/11/03 11:13:17;;;;;;;4.95;2.45;;;14.80;43.90;;;;;;5968202;23;114354;-82
2022/11/03 11:15:46;;;;;;;5.93;2.58;;;14.90;42.60;;;;;;5918872;23;114952;-82
2022/11/03 11:18:28;;;;;;;4.78;2.53;;;14.80;42.90;;;;;;5895839;23;119126;-82
2022/11/03 11:21:13;;;;;;;4.72;2.30;;;14.80;42.30;;;;;;5966471;23;114631;-81
2022/11/03 11:23:53;;;;;;;5.18;2.58;;;14.80;42.30;;;;;;5943779;23;114444;-82
2022/11/03 11:26:28;;;;;;;5.40;2.30;;;14.80;42.60;;;;;;5943639;23;114905;-82
2022/11/03 11:29:07;;;;;;;4.38;2.60;;;14.70;42.40;;;;;;5967342;23;114622;-82
2022/11/03 11:31:44;;;;;;;4.55;2.28;;;14.80;42.30;;;;;;5967870;23;114423;-82
2022/11/03 11:35:00;;;;;;;4.30;2.50;;;14.80;41.80;;;;;;5945271;23;114241;-82
2022/11/03 11:37:32;;;;;;;3.97;2.35;;;14.80;42.50;;;;;;5966222;23;115005;-81
2022/11/03 11:39:59;;;;;;;7.40;2.90;;;14.90;42.40;;;;;;5967271;23;115108;-82
2022/11/03 11:42:26;;;;;;;5.57;2.67;;;14.90;42.40;;;;;;5943827;23;114414;-82
2022/11/03 11:44:56;;;;;;;6.30;3.22;;;15.00;42.00;;;;;;5969060;23;114168;-82
2022/11/03 11:51:35;;;;;;;5.53;2.47;;;15.20;42.10;;;;;;5941976;23;117665;-82
2022/11/03 11:54:20;;;;;;;4.32;2.00;;;15.20;40.90;;;;;;5942898;23;114350;-83
2022/11/03 11:56:47;;;;;;;4.03;2.30;;;15.20;40.50;;;;;;5944896;23;114353;-83
2022/11/03 11:59:16;;;;;;;4.47;2.20;;;15.10;40.00;;;;;;5941953;23;117426;-82
2022/11/03 12:01:56;;;;;;;6.15;2.20;;;15.10;38.90;;;;;;5922122;23;114582;-82
2022/11/03 12:04:37;;;;;;;7.13;2.50;;;15.00;39.50;;;;;;5968689;23;114434;-82
2022/11/03 12:07:12;;;;;;;4.40;2.47;;;15.10;39.80;;;;;;5946240;23;114177;-82
2022/11/03 12:09:40;;;;;;;5.63;2.30;;;15.00;39.10;;;;;;5941828;23;114525;-82
2022/11/03 12:12:25;;;;;;;5.10;2.58;;;15.10;39.70;;;;;;5943348;23;117415;-84
2022/11/03 12:15:31;;;;;;;4.57;2.10;;;15.20;40.00;;;;;;5968766;23;114307;-83
2022/11/03 12:18:36;;;;;;;5.55;2.92;;;15.30;39.60;;;;;;5968225;23;115410;-82
2022/11/03 12:21:12;;;;;;;4.30;2.40;;;15.30;39.40;;;;;;5965961;23;114796;-82
2022/11/03 12:23:46;;;;;;;8.93;3.97;;;15.20;39.10;;;;;;5942394;23;114701;-82
2022/11/03 12:26:17;;;;;;;9.63;4.40;;;15.20;41.50;;;;;;5943492;23;114565;-82
2022/11/03 12:28:44;;;;;;;10.38;3.92;;;15.20;42.50;;;;;;5942999;23;114565;-82
2022/11/03 12:31:11;;;;;;;9.07;3.90;;;15.20;42.70;;;;;;5964796;23;115033;-82
2022/11/03 12:33:48;;;;;;;9.98;3.90;;;15.10;42.60;;;;;;5943949;23;114698;-81
2022/11/03 12:36:16;;;;;;;10.10;4.47;;;15.00;43.20;;;;;;5966016;23;115384;-82
2022/11/03 12:38:43;;;;;;;11.30;4.68;;;15.10;44.00;;;;;;5964328;23;115239;-82
2022/11/03 12:41:24;;;;;;;11.15;4.90;;;15.00;44.30;;;;;;5964848;23;114968;-82
2022/11/03 12:43:52;;;;;;;9.70;4.57;;;15.10;44.50;;;;;;5943199;23;114621;-82
2022/11/03 12:46:25;;;;;;;8.35;4.13;;;15.00;44.80;;;;;;5966811;23;114274;-82
2022/11/03 12:48:52;;;;;;;10.97;4.40;;;15.00;44.80;;;;;;5965657;23;114414;-82
2022/11/03 12:51:20;;;;;;;7.55;3.88;;;14.90;45.00;;;;;;5941419;23;114773;-82
2022/11/03 12:53:47;;;;;;;8.52;3.70;;;14.90;45.20;;;;;;5964520;23;115558;-81
2022/11/03 12:56:15;;;;;;;8.93;3.80;;;14.90;45.20;;;;;;5942000;23;114504;-82
2022/11/03 12:58:48;;;;;;;9.15;3.80;;;14.90;45.30;;;;;;5942628;23;114653;-82
2022/11/03 13:01:19;;;;;;;11.00;4.67;;;14.90;45.40;;;;;;5966268;23;115183;-82
2022/11/03 13:03:49;;;;;;;10.70;4.43;;;14.90;45.60;;;;;;5966517;23;116837;-82
2022/11/03 13:06:16;;;;;;;9.98;4.10;;;14.90;45.80;;;;;;5944680;23;114337;-81
2022/11/03 13:08:44;;;;;;;10.77;4.82;;;14.80;45.50;;;;;;5976675;23;114445;-82
2022/11/03 13:14:03;;;;;;;11.20;5.40;;;14.80;45.50;;;;;;5967330;23;115156;-81
2022/11/03 13:16:31;;;;;;;14.25;6.00;;;14.80;45.60;;;;;;5942868;23;114500;-82